Al Baha, Saudi Arabia

10:50 PM AST on February 25, 2017 (GMT +0300)
Al Baha | | Change Station

Elev 5433 ft 20.30 °N, 41.63 °E | Updated 50 minutes ago

Partly Cloudy
Partly Cloudy
54 °F
Feels Like 54 °F
N
12
Wind Variable Wind from ESE

Today
High -- | Low -- °F
--% Chance of Precip.
Yesterday
High -- | Low -- °F
Precip. -- in
Pressure 30.21 in
Visibility 3.7 miles
Clouds Few 2500 ft
Scattered Clouds 3000 ft
Dew Point 52 °F
Humidity 94%
Rainfall 0.00 in
Snow Depth Not available.
6:36 AM 6:16 PM
Waning Crescent, 1% visible
METAR OEBA 251900Z 11010KT 6000 FEW025CB SCT030 12/11 Q1023 NOSIG
Pressure 30.21 in
Visibility 3.7 miles
Clouds Few 2500 ft
Scattered Clouds 3000 ft
Dew Point 52 °F
Humidity 94%
Rainfall 0.00 in
Snow Depth Not available.
6:36 AM 6:16 PM
Waning Crescent, 1% visible
METAR OEBA 251900Z 11010KT 6000 FEW025CB SCT030 12/11 Q1023 NOSIG

Get Your Daily Forecast Email!

Thanks for signing up!

Be on the lookout for a verification email in your inbox.

You'll start receiving the daily forecast at 8 AM.

×

10-Day Weather Forecast

No radar image for this location.
×

Almanac

Astronomy

Feb. 25, 2017 Rise Set
Actual Time
Civil Twilight
Nautical Twilight
Astronomical Twilight
Moon
Length of Visible Light
Length of Day
Tomorrow will be .
, % of the Moon is Illuminated

Today's Extremes

Country Highs Country Lows

Community

WunderPhotos

Upload Photos

1,962,540 photos uploaded!

WunderBlog® & News

Nearby

Air Quality

  Air Quality AQ Index Pollutant
Not available.

Snow Depth

Station Depth Elevation

Earthquake Activity

City Distance Mag. Time & Date
Minimum magnitude displayed is 2.5.

Coastal Water Temperatures

Place Temperature

Stations

Nearby Weather Stations

Station Location Temp. Windchill Dew Point Humidity Wind Precip. Elev Updated Type